Time;durP1;ratioP1;P1;durP2;ratioP2;P2;SDS_P1;SDS_P2;PMS_P1;PMS_P2;Temp;Humidity;BMP_temperature;BMP_pressure;BME280_temperature;BME280_humidity;BME280_pressure;Samples;Min_cycle;Max_cycle;Signal;HPM_P1;HPM_P2
2022/08/14 00:02:14;;;;;;;2.90;2.70;;;19.90;99.90;;;;;;5013693;28;20267;-72
2022/08/14 00:04:40;;;;;;;3.23;2.80;;;19.90;99.90;;;;;;5013280;28;20210;-72
2022/08/14 00:07:05;;;;;;;4.00;3.70;;;19.80;99.90;;;;;;5013512;28;20443;-72
2022/08/14 00:09:31;;;;;;;3.67;3.27;;;19.90;99.90;;;;;;5013638;28;20255;-72
2022/08/14 00:11:57;;;;;;;3.17;2.87;;;19.90;99.90;;;;;;5013557;28;20234;-72
2022/08/14 00:14:24;;;;;;;2.60;2.40;;;19.90;99.90;;;;;;5013180;28;20165;-72
2022/08/14 00:16:51;;;;;;;3.67;3.30;;;19.90;99.90;;;;;;5012893;28;20164;-72
2022/08/14 00:19:17;;;;;;;2.80;2.60;;;19.80;99.90;;;;;;5013301;28;20467;-72
2022/08/14 00:21:43;;;;;;;4.17;3.30;;;19.80;99.90;;;;;;5013279;28;20909;-72
2022/08/14 00:24:09;;;;;;;3.17;2.67;;;19.70;99.90;;;;;;5012009;28;20454;-72
2022/08/14 00:26:34;;;;;;;2.70;2.50;;;19.70;99.90;;;;;;5013017;28;20203;-72
2022/08/14 00:29:00;;;;;;;5.40;3.80;;;19.70;99.90;;;;;;5013136;28;20168;-72
2022/08/14 00:31:26;;;;;;;3.07;2.77;;;19.70;99.90;;;;;;5013108;28;20194;-72
2022/08/14 00:33:52;;;;;;;3.57;3.27;;;19.70;99.90;;;;;;5013186;28;20198;-72
2022/08/14 00:36:22;;;;;;;3.30;3.00;;;19.70;99.90;;;;;;5012791;28;20456;-72
2022/08/14 00:38:47;;;;;;;8.80;3.80;;;19.70;99.90;;;;;;5013093;28;20172;-72
2022/08/14 00:41:13;;;;;;;3.50;3.20;;;19.60;99.90;;;;;;5012900;28;20446;-72
2022/08/14 00:43:39;;;;;;;3.80;3.50;;;19.60;99.90;;;;;;5013032;28;20169;-72
2022/08/14 00:46:06;;;;;;;3.53;3.27;;;19.50;99.90;;;;;;5012601;28;20196;-72
2022/08/14 00:48:32;;;;;;;3.33;2.80;;;19.50;99.90;;;;;;5012872;28;20166;-72
2022/08/14 00:50:58;;;;;;;4.10;3.60;;;19.50;99.90;;;;;;5012571;28;20411;-72
2022/08/14 00:53:24;;;;;;;3.70;3.17;;;19.50;99.90;;;;;;5012853;28;20939;-72
2022/08/14 00:55:54;;;;;;;2.97;2.77;;;19.50;99.90;;;;;;5012456;28;20172;-72
2022/08/14 00:58:29;;;;;;;3.40;3.10;;;19.50;99.90;;;;;;5012751;28;20491;-73
2022/08/14 01:00:55;;;;;;;3.70;3.00;;;19.40;99.90;;;;;;5011343;28;20476;-72
2022/08/14 01:03:21;;;;;;;5.00;3.63;;;19.40;99.90;;;;;;5012682;28;20498;-72
2022/08/14 01:05:50;;;;;;;3.73;3.43;;;19.40;99.90;;;;;;5011233;28;20546;-72
2022/08/14 01:08:26;;;;;;;3.67;3.37;;;19.40;99.90;;;;;;5012627;28;20263;-72
2022/08/14 01:10:56;;;;;;;5.30;3.80;;;19.40;99.90;;;;;;5012574;28;20928;-72
2022/08/14 01:13:34;;;;;;;4.73;3.17;;;19.40;99.90;;;;;;5012496;28;20490;-72
2022/08/14 01:16:03;;;;;;;4.00;3.43;;;19.30;99.90;;;;;;5012558;28;20477;-71
2022/08/14 01:21:19;;;;;;;5.03;3.10;;;19.20;99.90;;;;;;5012593;28;20560;-72
2022/08/14 01:23:52;;;;;;;2.97;2.77;;;19.20;99.90;;;;;;5012950;28;20418;-71
2022/08/14 01:26:22;;;;;;;3.67;3.10;;;19.20;99.90;;;;;;5012405;28;20447;-71
2022/08/14 01:28:50;;;;;;;3.80;3.50;;;19.20;99.90;;;;;;5012831;28;20415;-71
2022/08/14 01:31:18;;;;;;;3.83;3.30;;;19.20;99.90;;;;;;5012860;28;20518;-72
2022/08/14 01:33:46;;;;;;;4.30;3.53;;;19.20;99.90;;;;;;5012472;28;20407;-72
2022/08/14 01:36:15;;;;;;;4.40;3.27;;;19.20;99.90;;;;;;5011883;28;20403;-72
2022/08/14 01:38:42;;;;;;;4.40;3.20;;;19.10;99.90;;;;;;5012162;28;20457;-72
2022/08/14 01:41:12;;;;;;;3.70;3.40;;;19.10;99.90;;;;;;5012132;28;20410;-72
2022/08/14 01:43:50;;;;;;;4.40;3.37;;;19.10;99.90;;;;;;5012121;28;20450;-72
2022/08/14 01:46:17;;;;;;;3.50;2.87;;;19.10;99.90;;;;;;5012148;28;20450;-71
2022/08/14 01:48:44;;;;;;;5.00;3.43;;;19.10;99.90;;;;;;5012446;28;20443;-71
2022/08/14 01:51:12;;;;;;;3.43;3.13;;;19.10;99.90;;;;;;5012419;28;20509;-71
2022/08/14 01:53:48;;;;;;;4.00;3.63;;;19.10;99.90;;;;;;5012697;28;20962;-71
2022/08/14 01:56:17;;;;;;;3.37;2.73;;;19.00;99.90;;;;;;5012068;28;20632;-71
2022/08/14 01:58:48;;;;;;;3.50;3.20;;;19.00;99.90;;;;;;5011969;28;20480;-71
2022/08/14 02:01:18;;;;;;;3.23;2.93;;;19.00;99.90;;;;;;5010791;28;20431;-72
2022/08/14 02:03:45;;;;;;;4.70;4.20;;;19.10;99.90;;;;;;5012146;28;20464;-72
2022/08/14 02:06:12;;;;;;;3.13;2.80;;;19.10;99.90;;;;;;5011548;28;20450;-71
2022/08/14 02:08:39;;;;;;;3.40;3.10;;;19.10;99.90;;;;;;5011512;28;20403;-72
2022/08/14 02:11:20;;;;;;;4.00;3.60;;;19.10;99.90;;;;;;5012026;28;20462;-71
2022/08/14 02:13:58;;;;;;;4.33;3.53;;;19.10;99.90;;;;;;5011973;28;20905;-72
2022/08/14 02:16:27;;;;;;;3.37;3.07;;;19.10;99.90;;;;;;5011742;28;20407;-71
2022/08/14 02:18:56;;;;;;;4.20;3.53;;;19.10;99.90;;;;;;5012334;28;20415;-71
2022/08/14 02:21:22;;;;;;;3.40;3.10;;;19.10;99.90;;;;;;5012446;28;20431;-71
2022/08/14 02:23:49;;;;;;;3.60;3.30;;;19.10;99.90;;;;;;5012441;28;20426;-71
2022/08/14 02:26:31;;;;;;;5.90;3.57;;;19.10;99.90;;;;;;5011535;28;20191;-72
2022/08/14 02:29:09;;;;;;;3.80;3.40;;;19.00;99.90;;;;;;5011775;28;20399;-72
2022/08/14 02:31:41;;;;;;;3.47;3.17;;;19.10;99.90;;;;;;5011851;28;20895;-72
2022/08/14 02:34:19;;;;;;;3.83;3.50;;;19.10;99.90;;;;;;5011905;28;20419;-71
2022/08/14 02:36:47;;;;;;;14.57;3.30;;;19.10;99.90;;;;;;5011727;28;20851;-72
2022/08/14 02:39:14;;;;;;;3.63;3.30;;;19.10;99.90;;;;;;5011998;28;20420;-72
2022/08/14 02:41:41;;;;;;;5.90;4.33;;;19.10;99.90;;;;;;5015253;28;20431;-71
2022/08/14 02:44:09;;;;;;;3.43;3.10;;;19.00;99.90;;;;;;5015165;28;20465;-71
2022/08/14 02:46:35;;;;;;;3.73;3.43;;;19.00;99.90;;;;;;5013658;28;20664;-71
2022/08/14 02:49:02;;;;;;;4.80;3.83;;;19.00;99.90;;;;;;5015112;28;20762;-71
2022/08/14 02:51:28;;;;;;;4.27;3.87;;;18.90;99.90;;;;;;5014911;28;20466;-72
2022/08/14 02:53:55;;;;;;;4.57;3.73;;;18.90;99.90;;;;;;5014993;28;20411;-72
2022/08/14 02:56:20;;;;;;;5.60;3.47;;;19.00;99.90;;;;;;5013402;28;20454;-72
2022/08/14 02:58:51;;;;;;;3.93;3.60;;;19.00;99.90;;;;;;5015025;28;20522;-72
2022/08/14 03:01:21;;;;;;;4.97;3.60;;;18.90;99.90;;;;;;5014826;28;20434;-71
2022/08/14 03:03:48;;;;;;;3.67;3.37;;;18.90;99.90;;;;;;5014833;28;20403;-71
2022/08/14 03:06:15;;;;;;;5.43;3.70;;;18.90;99.90;;;;;;5014447;28;21042;-71
2022/08/14 03:08:42;;;;;;;4.40;4.00;;;18.90;99.90;;;;;;5014800;28;20403;-71
2022/08/14 03:11:10;;;;;;;4.60;4.20;;;18.90;99.90;;;;;;5014531;28;20418;-71
2022/08/14 03:13:41;;;;;;;5.20;4.50;;;18.90;99.90;;;;;;5014729;28;20407;-71
2022/08/14 03:16:09;;;;;;;5.37;4.40;;;18.90;99.90;;;;;;5014244;28;20510;-71
2022/08/14 03:18:41;;;;;;;5.53;4.17;;;18.90;99.90;;;;;;5014528;28;20411;-72
2022/08/14 03:21:12;;;;;;;4.17;3.77;;;18.80;99.90;;;;;;5014477;28;20441;-72
2022/08/14 03:23:42;;;;;;;5.43;4.13;;;18.80;99.90;;;;;;5013304;28;20946;-72
2022/08/14 03:26:09;;;;;;;4.90;4.20;;;18.80;99.90;;;;;;5014023;28;20443;-72
2022/08/14 03:28:39;;;;;;;5.00;4.50;;;18.70;99.90;;;;;;5014490;28;20439;-72
2022/08/14 03:31:05;;;;;;;4.23;3.80;;;18.60;99.90;;;;;;5012895;28;20427;-72
2022/08/14 03:33:31;;;;;;;4.23;3.70;;;18.60;99.90;;;;;;5014377;28;20446;-72
2022/08/14 03:35:58;;;;;;;4.70;4.20;;;18.60;99.90;;;;;;5013972;28;20443;-72
2022/08/14 03:38:24;;;;;;;7.10;4.80;;;18.50;99.90;;;;;;5014138;28;20599;-72
2022/08/14 03:40:49;;;;;;;5.90;4.10;;;18.50;99.90;;;;;;5013835;28;20412;-71
2022/08/14 03:43:15;;;;;;;7.27;4.70;;;18.40;99.90;;;;;;5014114;28;20419;-71
2022/08/14 03:45:43;;;;;;;4.83;4.30;;;18.40;99.90;;;;;;5013690;28;20199;-72
2022/08/14 03:48:18;;;;;;;5.53;5.03;;;18.40;99.90;;;;;;5014186;28;20214;-72
2022/08/14 03:50:50;;;;;;;4.73;4.23;;;18.40;99.90;;;;;;5013253;28;20414;-72
2022/08/14 03:53:18;;;;;;;4.60;4.17;;;18.40;99.90;;;;;;5013654;28;20403;-72
2022/08/14 03:55:45;;;;;;;5.10;4.50;;;18.50;99.90;;;;;;5013637;28;20399;-72
2022/08/14 03:58:12;;;;;;;5.67;3.90;;;18.60;99.90;;;;;;5013812;28;20501;-71
2022/08/14 04:00:38;;;;;;;5.33;4.83;;;18.50;99.90;;;;;;5013843;28;20415;-72
2022/08/14 04:03:07;;;;;;;6.00;5.20;;;18.40;99.90;;;;;;5013800;28;20955;-72
2022/08/14 04:05:33;;;;;;;7.17;5.07;;;18.40;99.90;;;;;;5013388;28;21010;-72
2022/08/14 04:07:59;;;;;;;8.20;4.07;;;18.30;99.90;;;;;;5013466;28;20439;-71
2022/08/14 04:10:25;;;;;;;5.67;4.83;;;18.30;99.90;;;;;;5013602;28;21228;-72
2022/08/14 04:12:51;;;;;;;4.60;4.07;;;18.30;99.90;;;;;;5013439;28;20199;-72
2022/08/14 04:15:20;;;;;;;5.57;4.90;;;18.20;99.90;;;;;;5013314;28;20206;-72
2022/08/14 04:17:46;;;;;;;8.50;4.60;;;18.20;99.90;;;;;;5013520;28;20195;-72
2022/08/14 04:20:11;;;;;;;7.50;5.73;;;18.10;99.90;;;;;;5013399;28;20414;-72
2022/08/14 04:22:42;;;;;;;5.90;4.77;;;18.10;99.90;;;;;;5013262;28;20917;-72
2022/08/14 04:25:09;;;;;;;4.63;3.87;;;18.20;99.90;;;;;;5013015;28;20243;-72
2022/08/14 04:27:35;;;;;;;5.60;5.10;;;18.20;99.90;;;;;;5013278;28;20412;-71
2022/08/14 04:30:04;;;;;;;4.90;4.50;;;18.20;99.90;;;;;;5013257;28;20435;-71
2022/08/14 04:32:30;;;;;;;5.40;4.77;;;18.30;99.90;;;;;;5013126;28;20419;-72
2022/08/14 04:34:55;;;;;;;5.77;5.07;;;18.30;99.90;;;;;;5012874;28;20904;-72
2022/08/14 04:45:39;;;;;;;4.70;4.30;;;18.50;99.90;;;;;;5012722;28;20493;-73
2022/08/14 04:48:13;;;;;;;6.00;5.40;;;18.50;99.90;;;;;;5012879;28;20462;-72
2022/08/14 04:50:45;;;;;;;8.57;5.40;;;18.50;99.90;;;;;;5012902;28;20412;-72
2022/08/14 04:53:14;;;;;;;7.40;5.77;;;18.50;99.90;;;;;;5012841;28;20514;-72
2022/08/14 04:55:43;;;;;;;6.90;5.13;;;18.50;99.90;;;;;;5012853;28;20458;-71
2022/08/14 04:58:09;;;;;;;7.00;5.13;;;18.50;99.90;;;;;;5013170;28;20399;-71
2022/08/14 05:00:37;;;;;;;6.50;4.90;;;18.50;99.90;;;;;;5013044;28;20923;-72
2022/08/14 05:03:04;;;;;;;5.03;4.37;;;18.50;99.90;;;;;;5012454;28;20188;-72
2022/08/14 05:05:31;;;;;;;9.07;5.57;;;18.50;99.90;;;;;;5012400;28;20449;-72
2022/08/14 05:08:08;;;;;;;8.27;5.40;;;18.50;99.90;;;;;;5012654;28;20407;-72
2022/08/14 05:10:35;;;;;;;5.77;4.90;;;18.60;99.90;;;;;;5012951;28;21131;-72
2022/08/14 05:13:01;;;;;;;6.37;5.77;;;18.70;99.90;;;;;;5012558;28;20502;-72
2022/08/14 05:15:28;;;;;;;5.63;4.93;;;18.70;99.90;;;;;;5012175;28;20842;-72
2022/08/14 05:17:54;;;;;;;6.90;5.90;;;18.70;99.90;;;;;;5012683;28;20160;-71
2022/08/14 05:20:20;;;;;;;6.70;6.10;;;18.80;99.90;;;;;;5012417;28;21027;-71
2022/08/14 05:22:45;;;;;;;6.67;5.97;;;18.90;99.90;;;;;;5012325;28;20455;-71
2022/08/14 05:25:11;;;;;;;6.13;5.53;;;18.90;99.90;;;;;;5011995;28;20494;-71
2022/08/14 05:27:37;;;;;;;7.70;4.70;;;19.00;99.90;;;;;;5012321;28;20161;-71
2022/08/14 05:30:05;;;;;;;6.47;5.20;;;19.10;99.90;;;;;;5012545;28;20164;-71
2022/08/14 05:32:30;;;;;;;5.10;4.63;;;19.20;99.90;;;;;;5012197;28;20423;-71
2022/08/14 05:34:58;;;;;;;5.67;4.80;;;19.30;99.90;;;;;;5011977;28;20422;-71
2022/08/14 05:37:23;;;;;;;5.27;4.77;;;19.40;99.90;;;;;;5012225;28;20168;-71
2022/08/14 05:39:49;;;;;;;5.00;4.50;;;19.60;99.90;;;;;;5012251;28;20473;-71
2022/08/14 05:42:15;;;;;;;7.70;5.67;;;19.80;99.90;;;;;;5012694;28;20192;-71
2022/08/14 05:44:41;;;;;;;4.73;4.33;;;20.00;99.90;;;;;;5011183;28;20180;-71
2022/08/14 05:47:06;;;;;;;9.90;5.23;;;20.40;99.90;;;;;;5012385;28;20512;-72
2022/08/14 05:49:32;;;;;;;6.67;5.40;;;20.70;99.90;;;;;;5011595;28;20176;-71
2022/08/14 05:51:58;;;;;;;6.00;5.40;;;21.10;99.90;;;;;;5012186;28;20214;-72
2022/08/14 05:54:24;;;;;;;5.30;4.80;;;21.60;99.90;;;;;;5012025;28;20169;-72
2022/08/14 05:56:49;;;;;;;5.87;5.30;;;21.90;99.90;;;;;;5012466;28;20256;-72
2022/08/14 05:59:15;;;;;;;6.17;5.47;;;22.40;99.90;;;;;;5012388;28;20438;-72
2022/08/14 06:01:40;;;;;;;5.90;5.40;;;23.00;99.90;;;;;;5011947;28;20596;-71
2022/08/14 06:04:06;;;;;;;5.40;4.80;;;23.50;99.90;;;;;;5012029;28;20640;-72
2022/08/14 06:06:32;;;;;;;5.37;4.90;;;24.00;99.90;;;;;;5011623;28;20208;-72
2022/08/14 06:08:57;;;;;;;6.17;4.93;;;24.50;99.90;;;;;;5012108;28;20634;-72
2022/08/14 06:11:23;;;;;;;5.90;4.90;;;25.10;99.90;;;;;;5012405;28;20231;-72
2022/08/14 06:13:48;;;;;;;5.50;5.00;;;25.50;99.90;;;;;;5012287;28;20169;-72
2022/08/14 06:16:16;;;;;;;6.20;4.60;;;25.80;99.90;;;;;;5015135;28;20180;-73
2022/08/14 06:18:41;;;;;;;5.10;4.70;;;26.10;99.90;;;;;;5015797;28;20198;-73
2022/08/14 06:21:07;;;;;;;5.37;4.90;;;26.50;99.90;;;;;;5015536;28;20502;-73
2022/08/14 06:23:32;;;;;;;5.07;4.63;;;26.80;99.90;;;;;;5015735;28;20172;-73
2022/08/14 06:25:58;;;;;;;5.87;5.37;;;27.20;99.90;;;;;;5015174;28;20278;-73
2022/08/14 06:28:25;;;;;;;6.40;5.80;;;27.40;99.90;;;;;;5015570;28;20164;-72
2022/08/14 06:30:52;;;;;;;7.10;5.07;;;27.80;99.90;;;;;;5015497;28;20164;-72
2022/08/14 06:33:18;;;;;;;5.53;4.90;;;28.30;99.90;;;;;;5015281;28;20486;-70
2022/08/14 06:35:45;;;;;;;4.63;4.23;;;28.60;99.90;;;;;;5015035;28;20496;-72
2022/08/14 06:38:20;;;;;;;4.80;4.37;;;28.70;99.40;;;;;;5015190;28;20908;-73
2022/08/14 06:40:47;;;;;;;6.07;5.47;;;28.90;97.20;;;;;;5014151;28;20431;-71
2022/08/14 06:43:14;;;;;;;4.60;4.17;;;29.20;95.80;;;;;;5015130;28;20912;-71
2022/08/14 06:45:42;;;;;;;5.67;5.07;;;29.50;94.20;;;;;;5014866;28;20457;-70
2022/08/14 06:48:21;;;;;;;6.13;4.87;;;29.70;92.60;;;;;;5015156;28;20403;-70
2022/08/14 06:50:47;;;;;;;6.83;5.20;;;29.90;91.40;;;;;;5015423;28;20415;-70
2022/08/14 06:53:15;;;;;;;4.30;3.90;;;30.30;90.70;;;;;;5015709;28;20430;-70
2022/08/14 06:55:41;;;;;;;5.40;4.60;;;30.70;90.60;;;;;;5014920;28;20168;-71
2022/08/14 06:58:11;;;;;;;4.70;4.20;;;31.00;85.00;;;;;;5015006;28;20419;-71
2022/08/14 07:00:37;;;;;;;6.60;5.47;;;31.50;81.80;;;;;;5015025;28;20408;-70
2022/08/14 07:05:48;;;;;;;4.67;4.37;;;32.30;73.40;;;;;;5014549;28;20454;-71
2022/08/14 07:08:18;;;;;;;6.17;4.80;;;32.70;72.90;;;;;;5014765;28;20415;-71
2022/08/14 07:10:48;;;;;;;5.47;4.97;;;33.00;68.50;;;;;;5014806;28;20457;-71
2022/08/14 07:13:17;;;;;;;5.70;5.20;;;33.40;66.00;;;;;;5015635;28;20417;-70
2022/08/14 07:15:45;;;;;;;5.90;5.40;;;33.50;63.20;;;;;;5013685;28;20415;-70
2022/08/14 07:18:12;;;;;;;5.17;4.67;;;33.70;61.60;;;;;;5014371;28;20490;-71
2022/08/14 07:20:40;;;;;;;4.97;4.57;;;33.90;62.50;;;;;;5014494;28;20438;-71
2022/08/14 07:23:08;;;;;;;5.77;5.27;;;34.10;59.60;;;;;;5014466;28;20493;-71
2022/08/14 07:25:38;;;;;;;4.57;4.27;;;34.30;59.10;;;;;;5013684;28;20455;-71
2022/08/14 07:28:24;;;;;;;5.77;5.17;;;34.70;58.80;;;;;;5014457;28;20407;-71
2022/08/14 07:30:51;;;;;;;5.20;4.80;;;34.60;56.40;;;;;;5014092;28;20467;-71
2022/08/14 07:33:17;;;;;;;5.13;4.73;;;34.60;56.70;;;;;;5014328;28;20403;-70
2022/08/14 07:35:43;;;;;;;6.07;4.70;;;34.80;57.20;;;;;;5014248;28;20418;-70
2022/08/14 07:38:17;;;;;;;4.90;4.50;;;35.10;56.70;;;;;;5015180;28;20411;-70
2022/08/14 07:40:42;;;;;;;5.27;4.87;;;35.60;56.90;;;;;;5015267;28;20176;-73
2022/08/14 07:43:08;;;;;;;5.47;4.97;;;35.80;54.20;;;;;;5013595;28;20445;-70
2022/08/14 07:45:34;;;;;;;5.50;5.10;;;35.70;53.30;;;;;;5013521;28;20275;-70
2022/08/14 07:47:59;;;;;;;5.33;4.93;;;35.90;53.20;;;;;;5013791;28;20192;-70
2022/08/14 07:50:25;;;;;;;4.90;4.40;;;36.00;52.50;;;;;;5013707;28;20169;-70
2022/08/14 07:52:50;;;;;;;4.90;4.53;;;36.20;52.00;;;;;;5014453;28;20180;-70
2022/08/14 07:55:17;;;;;;;6.23;5.73;;;36.30;51.40;;;;;;5014191;28;20208;-70
2022/08/14 07:57:45;;;;;;;5.10;4.40;;;36.10;50.90;;;;;;5014605;28;20222;-70
2022/08/14 08:00:14;;;;;;;5.70;5.20;;;35.70;52.30;;;;;;5014512;28;20408;-71
2022/08/14 08:02:42;;;;;;;5.77;5.27;;;35.10;51.40;;;;;;5013585;28;20456;-71
2022/08/14 08:05:10;;;;;;;6.73;5.80;;;34.80;52.50;;;;;;5013244;28;20407;-70
2022/08/14 08:07:38;;;;;;;4.70;4.40;;;34.80;52.40;;;;;;5013373;28;20488;-70
2022/08/14 08:10:31;;;;;;;5.80;5.30;;;34.60;53.00;;;;;;5014185;28;20961;-71
2022/08/14 08:13:03;;;;;;;8.20;5.27;;;34.60;52.90;;;;;;5012955;28;20480;-70
2022/08/14 08:15:31;;;;;;;5.70;5.23;;;34.70;53.70;;;;;;5014039;28;20896;-70
2022/08/14 08:17:58;;;;;;;4.90;4.40;;;34.90;53.50;;;;;;5012139;28;20944;-70
2022/08/14 08:20:25;;;;;;;4.57;4.17;;;35.10;54.10;;;;;;5013156;28;20438;-71
2022/08/14 08:22:55;;;;;;;5.90;5.37;;;35.50;54.10;;;;;;5013018;28;20415;-71
2022/08/14 08:25:21;;;;;;;5.00;4.60;;;36.20;52.50;;;;;;5012805;28;20920;-70
2022/08/14 08:28:00;;;;;;;5.13;4.70;;;36.70;50.80;;;;;;5013025;28;20411;-70
2022/08/14 08:30:28;;;;;;;6.07;5.53;;;36.60;50.20;;;;;;5011520;28;20179;-70
2022/08/14 08:32:56;;;;;;;5.40;4.90;;;37.30;50.20;;;;;;5012880;28;20430;-71
2022/08/14 08:35:25;;;;;;;5.87;5.23;;;37.60;48.50;;;;;;5012356;28;20478;-70
2022/08/14 08:37:59;;;;;;;6.87;4.87;;;38.10;47.30;;;;;;5012375;28;20765;-70
2022/08/14 08:40:36;;;;;;;5.33;4.83;;;38.40;46.90;;;;;;5012888;28;20400;-71
2022/08/14 08:43:07;;;;;;;5.03;4.67;;;39.20;45.70;;;;;;5012853;28;20483;-70
2022/08/14 08:45:35;;;;;;;5.00;4.60;;;39.40;45.30;;;;;;5012403;28;20446;-71
2022/08/14 08:48:02;;;;;;;6.40;5.90;;;40.30;44.70;;;;;;5012724;28;20397;-71
2022/08/14 08:50:36;;;;;;;4.77;4.40;;;40.70;43.10;;;;;;5012751;28;20886;-71
2022/08/14 08:53:06;;;;;;;5.50;5.00;;;41.80;43.80;;;;;;5012755;28;20417;-71
2022/08/14 08:55:39;;;;;;;4.50;4.13;;;42.70;40.60;;;;;;5012418;28;20821;-71
2022/08/14 08:58:07;;;;;;;5.90;5.40;;;43.70;39.70;;;;;;5012568;28;20406;-71
2022/08/14 09:00:34;;;;;;;4.93;4.63;;;44.30;37.30;;;;;;5013560;28;20397;-71
2022/08/14 09:03:14;;;;;;;5.77;5.27;;;44.70;36.70;;;;;;5013534;28;20401;-71
2022/08/14 09:05:51;;;;;;;4.33;3.93;;;45.20;35.20;;;;;;5012148;28;20417;-71
2022/08/14 09:08:19;;;;;;;5.60;5.20;;;45.30;35.80;;;;;;5012484;28;20415;-71
2022/08/14 09:10:46;;;;;;;5.60;5.20;;;46.00;34.70;;;;;;5012228;28;20416;-71
2022/08/14 09:13:14;;;;;;;5.90;5.50;;;46.30;34.50;;;;;;5012218;28;20427;-71
2022/08/14 09:15:42;;;;;;;4.30;4.00;;;46.90;34.20;;;;;;5012313;28;20433;-71
2022/08/14 09:18:08;;;;;;;5.20;4.90;;;47.40;31.40;;;;;;5012162;28;20390;-71
2022/08/14 09:20:37;;;;;;;5.23;4.63;;;47.70;30.40;;;;;;5012270;28;20899;-71
2022/08/14 09:23:03;;;;;;;5.87;5.10;;;47.50;31.50;;;;;;5012039;28;20529;-71
2022/08/14 09:25:29;;;;;;;5.30;5.00;;;47.70;30.60;;;;;;5011477;28;20870;-72
2022/08/14 09:27:54;;;;;;;6.30;5.80;;;47.70;32.00;;;;;;5012744;28;20390;-71
2022/08/14 09:30:20;;;;;;;5.67;5.30;;;47.90;31.50;;;;;;5013042;28;20547;-71
2022/08/14 09:32:51;;;;;;;5.00;4.60;;;48.80;30.80;;;;;;5012952;28;20188;-71
2022/08/14 09:35:27;;;;;;;5.20;4.90;;;49.60;28.20;;;;;;5011749;28;20164;-71
2022/08/14 09:38:05;;;;;;;5.40;5.10;;;49.70;28.60;;;;;;5012089;28;20876;-71
2022/08/14 09:40:49;;;;;;;5.67;5.27;;;50.00;28.00;;;;;;5012910;28;20520;-71
2022/08/14 09:43:33;;;;;;;5.57;5.20;;;50.10;28.20;;;;;;5012800;28;20553;-71
2022/08/14 09:46:05;;;;;;;6.00;5.57;;;50.60;27.90;;;;;;5011818;28;20939;-72
2022/08/14 09:48:31;;;;;;;5.20;4.90;;;50.90;27.40;;;;;;5012013;28;20411;-71
2022/08/14 09:50:58;;;;;;;5.90;5.40;;;51.00;26.70;;;;;;5013849;28;20779;-71
2022/08/14 09:53:43;;;;;;;5.40;4.93;;;51.70;27.50;;;;;;5016148;28;20548;-71
2022/08/14 09:56:10;;;;;;;5.60;5.20;;;52.20;25.70;;;;;;5015869;28;20807;-71
2022/08/14 09:58:42;;;;;;;5.40;5.10;;;51.40;25.80;;;;;;5022827;28;20417;-71
2022/08/14 10:01:19;;;;;;;5.67;5.10;;;50.70;26.60;;;;;;5035528;28;20409;-71
2022/08/14 10:03:56;;;;;;;5.63;5.13;;;50.80;26.70;;;;;;5035627;28;20547;-71
2022/08/14 10:06:24;;;;;;;5.03;4.73;;;51.20;27.10;;;;;;5035837;28;20440;-71
2022/08/14 10:08:57;;;;;;;5.90;5.40;;;51.70;26.70;;;;;;5036173;28;20438;-71
2022/08/14 10:11:26;;;;;;;5.17;4.87;;;51.90;26.10;;;;;;5035312;28;20578;-72
2022/08/14 10:13:55;;;;;;;5.27;4.97;;;52.70;26.00;;;;;;5035339;28;20394;-72
2022/08/14 10:16:29;;;;;;;6.10;5.70;;;52.90;26.00;;;;;;5035049;28;20567;-72
2022/08/14 10:19:15;;;;;;;5.20;4.90;;;52.80;24.10;;;;;;5034087;28;20752;-72
2022/08/14 10:21:48;;;;;;;4.80;4.50;;;52.30;25.00;;;;;;5035808;28;20425;-71
2022/08/14 10:24:24;;;;;;;5.00;4.70;;;52.30;25.30;;;;;;5035656;28;20455;-72
2022/08/14 10:26:55;;;;;;;5.20;4.90;;;52.70;25.10;;;;;;5034951;28;20488;-72
2022/08/14 10:29:33;;;;;;;5.33;5.03;;;53.30;25.50;;;;;;5034920;28;20485;-72
2022/08/14 10:32:00;;;;;;;5.30;5.00;;;53.70;23.70;;;;;;5034889;28;20421;-72
2022/08/14 10:34:32;;;;;;;4.77;4.57;;;53.50;23.50;;;;;;5034517;28;20756;-71
2022/08/14 10:37:17;;;;;;;5.17;4.87;;;53.20;23.60;;;;;;5034418;28;20451;-71
2022/08/14 10:39:56;;;;;;;5.67;5.37;;;53.20;23.10;;;;;;5034880;28;20406;-71
2022/08/14 10:42:21;;;;;;;6.10;5.07;;;52.70;23.90;;;;;;5034436;28;20482;-71
2022/08/14 10:44:48;;;;;;;5.90;5.50;;;53.20;24.40;;;;;;5034468;28;20496;-71
2022/08/14 10:47:17;;;;;;;6.30;6.00;;;53.50;24.30;;;;;;5033515;28;20249;-71
2022/08/14 10:50:02;;;;;;;5.23;5.03;;;54.00;24.50;;;;;;5034780;28;20409;-72
2022/08/14 10:52:34;;;;;;;5.50;5.07;;;54.70;23.90;;;;;;5034356;28;20437;-72
2022/08/14 10:55:07;;;;;;;5.47;5.17;;;55.30;22.80;;;;;;5035027;28;20395;-71
2022/08/14 10:57:34;;;;;;;4.53;4.23;;;54.20;21.20;;;;;;5035328;28;20773;-71
2022/08/14 11:00:12;;;;;;;4.93;4.63;;;53.30;22.70;;;;;;5034863;28;20410;-71
2022/08/14 11:02:38;;;;;;;4.10;3.90;;;52.90;23.20;;;;;;5035250;28;20418;-71
2022/08/14 11:05:10;;;;;;;4.70;4.43;;;53.40;23.30;;;;;;5034617;28;20398;-72
2022/08/14 11:07:38;;;;;;;4.70;4.30;;;53.60;21.70;;;;;;5035229;28;20194;-71
2022/08/14 11:10:13;;;;;;;4.40;4.20;;;53.20;21.80;;;;;;5034992;28;20867;-71
2022/08/14 11:12:54;;;;;;;4.53;4.23;;;53.00;22.10;;;;;;5033825;28;20755;-71
2022/08/14 11:15:28;;;;;;;4.37;4.07;;;52.60;22.20;;;;;;5033615;28;20413;-71
2022/08/14 11:17:55;;;;;;;4.23;3.83;;;52.10;21.60;;;;;;5034724;28;20540;-71
2022/08/14 11:20:23;;;;;;;4.23;3.93;;;51.10;22.60;;;;;;5035105;28;20402;-71
2022/08/14 11:22:54;;;;;;;5.57;5.17;;;50.30;23.10;;;;;;5033977;28;20893;-71
2022/08/14 11:25:25;;;;;;;6.97;5.27;;;50.40;23.70;;;;;;5033523;28;20485;-72
2022/08/14 11:27:53;;;;;;;3.70;3.50;;;50.70;23.10;;;;;;5033691;28;20773;-71
2022/08/14 11:30:21;;;;;;;3.80;3.60;;;50.10;22.30;;;;;;5033634;28;20746;-71
2022/08/14 11:32:48;;;;;;;4.03;3.77;;;49.50;22.10;;;;;;5032592;28;20423;-71
2022/08/14 11:35:19;;;;;;;3.77;3.50;;;49.20;23.20;;;;;;5033497;28;20469;-71
2022/08/14 11:37:58;;;;;;;4.23;3.97;;;49.40;24.00;;;;;;5033700;28;20949;-71
2022/08/14 11:40:25;;;;;;;4.80;4.30;;;49.30;23.40;;;;;;5033614;28;20438;-71
2022/08/14 11:42:54;;;;;;;3.23;3.03;;;49.70;24.40;;;;;;5033468;28;20404;-71
2022/08/14 11:45:24;;;;;;;3.43;3.23;;;49.90;23.00;;;;;;5033279;28;20388;-71
2022/08/14 11:47:51;;;;;;;3.47;3.27;;;50.20;22.50;;;;;;5033645;28;20407;-71
2022/08/14 11:50:23;;;;;;;5.20;4.80;;;50.10;22.60;;;;;;5032122;28;20380;-71
2022/08/14 11:52:52;;;;;;;4.10;3.80;;;50.10;22.70;;;;;;5033482;28;20420;-71
2022/08/14 11:55:18;;;;;;;4.23;3.83;;;50.70;23.00;;;;;;5033042;28;20406;-71
2022/08/14 11:57:44;;;;;;;4.10;3.90;;;51.00;22.40;;;;;;5033152;28;20409;-71
2022/08/14 12:00:15;;;;;;;4.80;4.50;;;51.10;23.20;;;;;;5033475;28;20410;-71
2022/08/14 12:02:54;;;;;;;3.97;3.77;;;52.00;22.00;;;;;;5033379;28;20184;-71
2022/08/14 12:05:33;;;;;;;3.73;3.53;;;51.00;21.90;;;;;;5032971;28;20387;-71
2022/08/14 12:08:00;;;;;;;3.97;3.77;;;51.20;23.00;;;;;;5033465;28;20802;-71
2022/08/14 12:10:28;;;;;;;5.33;4.93;;;51.80;23.00;;;;;;5033237;28;20460;-71
2022/08/14 12:12:55;;;;;;;4.47;4.27;;;52.50;22.10;;;;;;5032107;28;20414;-71
2022/08/14 12:15:34;;;;;;;4.20;4.00;;;53.30;22.00;;;;;;5032992;28;20891;-71
2022/08/14 12:18:01;;;;;;;3.80;3.60;;;52.70;21.80;;;;;;5034001;28;20457;-71
2022/08/14 12:20:32;;;;;;;5.07;4.67;;;52.30;21.50;;;;;;5033952;28;20406;-71
2022/08/14 12:22:59;;;;;;;3.40;3.20;;;51.70;21.30;;;;;;5033622;28;20494;-71
2022/08/14 12:25:25;;;;;;;4.00;3.80;;;51.30;21.70;;;;;;5032563;28;20410;-71
2022/08/14 12:27:52;;;;;;;3.67;3.47;;;51.70;22.00;;;;;;5032804;28;20421;-71
2022/08/14 12:30:28;;;;;;;4.20;3.90;;;51.60;22.40;;;;;;5032804;28;20516;-71
2022/08/14 12:32:55;;;;;;;4.13;3.93;;;52.20;23.10;;;;;;5032700;28;20418;-71
2022/08/14 12:35:22;;;;;;;4.27;4.07;;;52.90;22.00;;;;;;5032484;28;20911;-72
2022/08/14 12:37:51;;;;;;;4.70;4.50;;;53.20;22.50;;;;;;5032835;28;20768;-72
2022/08/14 12:40:23;;;;;;;4.60;4.40;;;54.00;21.80;;;;;;5032709;28;20413;-72
2022/08/14 12:42:50;;;;;;;5.20;4.90;;;54.70;22.30;;;;;;5032589;28;20853;-72
2022/08/14 12:45:16;;;;;;;4.60;4.40;;;55.20;21.30;;;;;;5032229;28;20410;-72
2022/08/14 12:47:42;;;;;;;4.80;4.50;;;54.60;21.20;;;;;;5032690;28;20406;-71
2022/08/14 12:50:09;;;;;;;4.93;4.63;;;54.10;21.10;;;;;;5032480;28;20400;-71
2022/08/14 12:52:40;;;;;;;4.50;4.20;;;53.40;21.10;;;;;;5032234;28;20208;-71
2022/08/14 12:55:07;;;;;;;3.67;3.47;;;52.80;21.70;;;;;;5032090;28;20492;-71
2022/08/14 12:57:44;;;;;;;4.03;3.83;;;52.80;21.90;;;;;;5032294;28;20472;-71
2022/08/14 13:00:17;;;;;;;4.23;3.90;;;51.20;22.10;;;;;;5032285;28;20496;-71
2022/08/14 13:02:45;;;;;;;3.63;3.37;;;50.10;23.60;;;;;;5032214;28;20441;-71
2022/08/14 13:05:12;;;;;;;3.93;3.73;;;50.70;23.80;;;;;;5031877;28;20402;-71
2022/08/14 13:07:39;;;;;;;3.97;3.60;;;51.50;22.60;;;;;;5032191;28;20446;-71
2022/08/14 13:10:11;;;;;;;3.80;3.60;;;52.10;22.80;;;;;;5031974;28;20766;-71
2022/08/14 13:12:38;;;;;;;3.90;3.70;;;52.10;22.30;;;;;;5031993;28;20425;-71